Time;durP1;ratioP1;P1;durP2;ratioP2;P2;SDS_P1;SDS_P2;PMS_P1;PMS_P2;Temp;Humidity;BMP_temperature;BMP_pressure;BME280_temperature;BME280_humidity;BME280_pressure;Samples;Min_cycle;Max_cycle;Signal;HPM_P1;HPM_P2
2023/03/10 00:02:33;;;;;;;133.35;31.80;;;;;;;5.48;100.00;98617.22;5284827;28;20043;-73
2023/03/10 00:05:04;;;;;;;180.77;34.13;;;;;;;5.56;100.00;98613.88;5289338;28;20028;-73
2023/03/10 00:07:35;;;;;;;82.57;26.50;;;;;;;5.45;100.00;98617.50;5277102;28;20071;-73
2023/03/10 00:10:10;;;;;;;64.15;25.20;;;;;;;5.43;100.00;98624.72;5287430;28;20390;-74
2023/03/10 00:12:42;;;;;;;51.30;23.23;;;;;;;5.58;100.00;98621.66;5287861;28;20063;-73
2023/03/10 00:15:14;;;;;;;60.47;24.60;;;;;;;5.47;100.00;98615.53;5288249;28;20032;-74
2023/03/10 00:17:48;;;;;;;941.75;139.70;;;;;;;5.48;100.00;98619.00;5285986;28;20065;-73
2023/03/10 00:20:21;;;;;;;79.72;27.15;;;;;;;5.49;100.00;98612.75;5275806;28;20028;-73
2023/03/10 00:22:52;;;;;;;54.78;22.25;;;;;;;5.57;100.00;98610.25;5283037;28;20017;-74
2023/03/10 00:25:23;;;;;;;130.55;30.23;;;;;;;5.46;100.00;98608.56;5293796;28;21472;-74
2023/03/10 00:27:55;;;;;;;39.10;20.77;;;;;;;5.54;100.00;98605.22;5290511;28;20024;-73
2023/03/10 00:30:28;;;;;;;35.92;19.75;;;;;;;5.55;100.00;98600.78;5291138;28;20061;-73
2023/03/10 00:33:00;;;;;;;72.70;23.05;;;;;;;5.45;100.00;98598.97;5282567;28;20097;-73
2023/03/10 00:35:31;;;;;;;42.35;20.20;;;;;;;5.44;100.00;98599.94;5291078;28;20439;-73
2023/03/10 00:38:03;;;;;;;31.38;18.05;;;;;;;5.45;100.00;98601.63;5287329;28;20020;-74
2023/03/10 00:40:34;;;;;;;27.00;17.33;;;;;;;5.47;100.00;98604.13;5286982;28;20027;-73
2023/03/10 00:43:05;;;;;;;30.95;16.90;;;;;;;5.46;100.00;98602.44;5295905;28;20561;-73
2023/03/10 00:45:37;;;;;;;122.30;29.95;;;;;;;5.35;100.00;98602.59;5282477;28;20477;-74
2023/03/10 00:48:08;;;;;;;41.05;18.58;;;;;;;5.37;100.00;98601.50;5282264;28;20491;-74
2023/03/10 00:50:39;;;;;;;41.45;18.50;;;;;;;5.37;100.00;98606.78;5282727;28;20359;-73
2023/03/10 00:53:11;;;;;;;56.55;21.95;;;;;;;5.42;100.00;98606.34;5293484;28;20020;-73
2023/03/10 00:55:42;;;;;;;25.38;16.45;;;;;;;5.64;100.00;98606.06;5285396;28;20056;-73
2023/03/10 00:58:13;;;;;;;39.97;18.70;;;;;;;5.41;100.00;98610.81;5294283;28;20700;-74
2023/03/10 01:00:44;;;;;;;24.30;15.70;;;;;;;5.68;100.00;98609.25;5293299;28;20020;-73
2023/03/10 01:03:16;;;;;;;23.42;15.43;;;;;;;5.59;100.00;98610.94;5281857;28;20047;-73
2023/03/10 01:05:48;;;;;;;57.33;19.98;;;;;;;5.48;100.00;98613.72;5284383;28;20570;-73
2023/03/10 01:08:20;;;;;;;62.80;23.42;;;;;;;5.50;100.00;98614.41;5287009;28;20020;-73
2023/03/10 01:10:52;;;;;;;28.38;16.02;;;;;;;5.56;100.00;98610.38;5295094;28;20025;-73
2023/03/10 01:13:23;;;;;;;26.63;16.25;;;;;;;5.65;100.00;98614.81;5280422;28;20472;-74
2023/03/10 01:15:54;;;;;;;33.70;15.93;;;;;;;5.71;100.00;98606.31;5284553;28;20824;-73
2023/03/10 01:18:26;;;;;;;21.98;11.85;;;;;;;5.81;100.00;98601.00;5297904;28;20103;-74
2023/03/10 01:20:57;;;;;;;29.45;13.48;;;;;;;5.70;100.00;98596.72;5284228;28;20040;-73
2023/03/10 01:23:29;;;;;;;24.08;11.25;;;;;;;5.84;100.00;98595.44;5293134;28;20085;-73
2023/03/10 01:26:00;;;;;;;21.67;10.88;;;;;;;5.86;100.00;98593.47;5286363;28;20058;-74
2023/03/10 01:28:31;;;;;;;21.15;10.63;;;;;;;6.02;100.00;98579.66;5295985;28;20035;-73
2023/03/10 01:31:06;;;;;;;25.88;11.25;;;;;;;5.91;100.00;98591.25;5281174;28;20033;-74
2023/03/10 01:33:39;;;;;;;20.88;10.88;;;;;;;5.98;100.00;98584.41;5279760;28;20042;-73
2023/03/10 01:36:14;;;;;;;23.20;12.02;;;;;;;6.12;100.00;98577.84;5299547;28;20028;-73
2023/03/10 01:38:47;;;;;;;24.88;12.20;;;;;;;6.27;100.00;98586.13;5284012;28;20032;-74
2023/03/10 01:41:19;;;;;;;22.38;11.75;;;;;;;6.37;100.00;98584.28;5285089;28;20027;-73
2023/03/10 01:43:53;;;;;;;24.65;12.43;;;;;;;6.33;100.00;98574.13;5293110;28;20513;-73
2023/03/10 01:46:30;;;;;;;25.10;13.30;;;;;;;6.44;100.00;98574.78;5288909;28;20024;-73
2023/03/10 01:49:10;;;;;;;28.75;13.35;;;;;;;6.55;100.00;98565.78;5284416;28;20066;-73
2023/03/10 01:51:46;;;;;;;21.90;12.65;;;;;;;6.68;100.00;98555.66;5283650;28;20031;-74
2023/03/10 01:54:25;;;;;;;24.45;13.07;;;;;;;6.59;100.00;98567.16;5281731;28;20393;-74
2023/03/10 01:56:57;;;;;;;26.10;13.40;;;;;;;6.57;100.00;98565.63;5282172;28;20127;-74
2023/03/10 01:59:28;;;;;;;30.30;13.70;;;;;;;6.58;100.00;98564.66;5280820;28;20111;-73
2023/03/10 02:02:00;;;;;;;25.15;14.13;;;;;;;6.69;100.00;98559.13;5283981;28;20028;-73
2023/03/10 02:04:40;;;;;;;27.95;13.85;;;;;;;6.67;100.00;98561.09;5284135;28;20030;-74
2023/03/10 02:07:12;;;;;;;31.60;14.52;;;;;;;6.70;100.00;98555.53;5283069;28;20135;-74
2023/03/10 02:09:46;;;;;;;26.17;12.65;;;;;;;6.83;100.00;98571.91;5282840;28;20024;-73
2023/03/10 02:12:19;;;;;;;31.08;14.60;;;;;;;6.80;100.00;98566.06;5279952;28;20063;-74
2023/03/10 02:14:52;;;;;;;28.10;12.95;;;;;;;6.97;100.00;98570.53;5282817;28;20077;-73
2023/03/10 02:17:25;;;;;;;29.42;13.57;;;;;;;6.87;100.00;98557.34;5277236;28;20549;-73
2023/03/10 02:20:19;;;;;;;28.13;13.63;;;;;;;6.90;100.00;98564.16;5282059;28;20024;-73
2023/03/10 02:22:51;;;;;;;26.10;12.95;;;;;;;6.99;100.00;98554.47;5278424;28;20028;-74
2023/03/10 02:25:45;;;;;;;24.25;12.57;;;;;;;6.99;100.00;98549.19;5280924;28;20048;-74
2023/03/10 02:28:17;;;;;;;22.33;11.40;;;;;;;6.93;100.00;98541.84;5281983;28;20496;-73
2023/03/10 02:30:51;;;;;;;27.85;12.77;;;;;;;6.90;100.00;98531.53;5282797;28;20454;-73
2023/03/10 02:33:26;;;;;;;25.98;12.10;;;;;;;6.98;100.00;98527.16;5283317;28;20024;-73
2023/03/10 02:36:11;;;;;;;32.53;12.82;;;;;;;7.01;100.00;98524.19;5282092;28;20059;-73
2023/03/10 02:38:42;;;;;;;28.75;11.93;;;;;;;6.92;100.00;98524.25;5281348;28;20749;-73
2023/03/10 02:41:32;;;;;;;21.85;11.70;;;;;;;7.02;100.00;98523.22;5284050;28;20147;-73
2023/03/10 02:44:08;;;;;;;25.30;11.68;;;;;;;6.92;100.00;98522.44;5281735;28;20050;-73
2023/03/10 02:46:39;;;;;;;24.48;11.95;;;;;;;6.90;100.00;98516.44;5283178;28;20069;-73
2023/03/10 02:49:11;;;;;;;19.95;10.40;;;;;;;7.11;100.00;98516.13;5277970;28;20040;-74
2023/03/10 02:51:45;;;;;;;21.35;10.27;;;;;;;6.95;100.00;98516.00;5275233;28;20093;-74
2023/03/10 02:54:16;;;;;;;18.52;10.40;;;;;;;7.04;100.00;98515.09;5277484;28;20024;-74
2023/03/10 02:56:47;;;;;;;19.35;9.88;;;;;;;6.97;100.00;98509.56;5280251;28;20489;-73
2023/03/10 02:59:18;;;;;;;18.67;10.10;;;;;;;6.94;100.00;98503.72;5279354;28;20046;-73
2023/03/10 03:01:50;;;;;;;32.88;12.48;;;;;;;6.84;100.00;98504.63;5273918;28;20066;-74
2023/03/10 03:04:22;;;;;;;37.55;12.88;;;;;;;6.84;100.00;98494.03;5283870;28;20032;-74
2023/03/10 03:06:53;;;;;;;25.40;10.85;;;;;;;6.86;100.00;98501.84;5281461;28;20036;-72
2023/03/10 03:09:24;;;;;;;21.23;10.18;;;;;;;6.81;100.00;98494.34;5277919;28;20028;-72
2023/03/10 03:11:56;;;;;;;18.15;9.82;;;;;;;6.80;100.00;98483.91;5281440;28;20028;-73
2023/03/10 03:14:27;;;;;;;15.95;8.85;;;;;;;6.74;100.00;98487.16;5279275;28;20043;-74
2023/03/10 03:16:58;;;;;;;20.98;9.60;;;;;;;6.86;100.00;98481.50;5278382;28;20028;-73
2023/03/10 03:19:30;;;;;;;21.23;9.85;;;;;;;6.84;100.00;98488.72;5282371;28;20474;-74
2023/03/10 03:22:01;;;;;;;33.35;10.70;;;;;;;6.85;100.00;98485.09;5276105;28;20914;-73
2023/03/10 03:24:32;;;;;;;21.13;9.48;;;;;;;6.85;100.00;98484.28;5286467;28;20036;-73
2023/03/10 03:27:04;;;;;;;32.25;11.23;;;;;;;6.78;100.00;98483.22;5282594;28;20140;-73
2023/03/10 03:29:35;;;;;;;19.75;8.90;;;;;;;6.85;100.00;98485.09;5277757;28;20036;-74
2023/03/10 03:32:06;;;;;;;26.95;10.40;;;;;;;6.77;100.00;98487.69;5281613;28;20106;-73
2023/03/10 03:34:38;;;;;;;16.27;8.20;;;;;;;6.87;100.00;98484.97;5278739;28;20039;-74
2023/03/10 03:37:09;;;;;;;19.80;8.57;;;;;;;6.95;100.00;98484.19;5282048;28;20105;-74
2023/03/10 03:39:40;;;;;;;27.27;9.43;;;;;;;6.86;100.00;98483.28;5280138;28;20037;-73
2023/03/10 03:42:12;;;;;;;16.30;8.20;;;;;;;7.05;100.00;98485.75;5281586;28;20043;-73
2023/03/10 03:44:43;;;;;;;22.88;8.45;;;;;;;6.93;100.00;98486.19;5282573;28;20043;-73
2023/03/10 03:47:14;;;;;;;15.13;6.93;;;;;;;7.09;100.00;98483.66;5282099;28;20033;-74
2023/03/10 03:49:46;;;;;;;17.02;7.65;;;;;;;7.06;100.00;98482.16;5281985;28;20601;-74
2023/03/10 03:52:18;;;;;;;22.00;7.07;;;;;;;6.96;100.00;98481.41;5284811;28;20474;-73
2023/03/10 03:54:49;;;;;;;21.10;7.35;;;;;;;7.12;100.00;98477.22;5276111;28;20483;-73
2023/03/10 03:57:20;;;;;;;23.02;7.53;;;;;;;7.02;100.00;98477.31;5278988;28;20077;-74
2023/03/10 03:59:52;;;;;;;16.70;6.72;;;;;;;7.10;100.00;98472.06;5275295;28;20032;-73
2023/03/10 04:02:24;;;;;;;19.20;6.75;;;;;;;7.16;100.00;98470.63;5279689;28;20078;-75
2023/03/10 04:04:55;;;;;;;18.73;7.07;;;;;;;7.08;100.00;98476.69;5277386;28;20494;-73
2023/03/10 04:07:26;;;;;;;20.40;6.82;;;;;;;7.09;100.00;98464.25;5277920;28;20450;-73
2023/03/10 04:09:58;;;;;;;17.77;6.88;;;;;;;7.18;100.00;98466.81;5281410;28;20466;-74
2023/03/10 04:12:29;;;;;;;15.50;6.28;;;;;;;7.35;100.00;98466.94;5281592;28;20038;-73
2023/03/10 04:15:00;;;;;;;20.95;6.22;;;;;;;7.13;100.00;98463.78;5281629;28;20040;-73
2023/03/10 04:17:32;;;;;;;16.00;6.43;;;;;;;7.13;100.00;98461.13;5281692;28;20385;-73
2023/03/10 04:20:05;;;;;;;20.17;6.00;;;;;;;7.11;100.00;98463.09;5277052;28;20039;-73
2023/03/10 04:22:36;;;;;;;20.23;5.25;;;;;;;7.14;100.00;98459.34;5280377;28;20479;-73
2023/03/10 04:25:08;;;;;;;15.30;5.03;;;;;;;7.27;100.00;98459.75;5281625;28;20141;-74
2023/03/10 04:27:39;;;;;;;15.55;4.97;;;;;;;7.28;100.00;98457.94;5282464;28;20028;-73
2023/03/10 04:30:12;;;;;;;18.55;4.90;;;;;;;7.16;100.00;98474.09;5281906;28;20063;-73
2023/03/10 04:32:43;;;;;;;18.33;5.38;;;;;;;7.11;100.00;98463.09;5281081;28;20032;-73
2023/03/10 04:35:15;;;;;;;21.00;5.65;;;;;;;7.20;100.00;98471.97;5286889;28;20478;-73
2023/03/10 04:37:46;;;;;;;18.30;4.65;;;;;;;7.15;100.00;98460.97;5285217;28;20492;-73
2023/03/10 04:40:18;;;;;;;15.38;4.53;;;;;;;7.17;100.00;98461.66;5284243;28;20051;-74
2023/03/10 04:42:49;;;;;;;13.70;4.28;;;;;;;7.11;100.00;98455.16;5284156;28;20028;-74
2023/03/10 04:45:20;;;;;;;16.38;4.35;;;;;;;7.00;100.00;98445.66;5284933;28;20032;-74
2023/03/10 04:47:51;;;;;;;10.85;3.70;;;;;;;6.96;100.00;98443.44;5285515;28;20486;-73
2023/03/10 04:50:23;;;;;;;13.95;3.85;;;;;;;6.96;100.00;98440.78;5282306;28;20539;-74
2023/03/10 04:52:54;;;;;;;15.07;3.67;;;;;;;6.96;100.00;98446.09;5282064;28;20413;-73
2023/03/10 04:55:25;;;;;;;20.02;4.32;;;;;;;6.85;100.00;98450.66;5287068;28;20087;-73
2023/03/10 04:57:57;;;;;;;19.20;4.85;;;;;;;6.95;100.00;98436.47;5283644;28;20028;-74
2023/03/10 05:00:28;;;;;;;14.57;4.40;;;;;;;6.93;100.00;98446.41;5281923;28;20111;-74
2023/03/10 05:03:00;;;;;;;17.70;4.10;;;;;;;6.93;100.00;98446.41;5274873;28;20044;-74
2023/03/10 05:05:33;;;;;;;16.13;4.78;;;;;;;6.97;100.00;98445.13;5279881;28;20032;-74
2023/03/10 05:08:05;;;;;;;15.65;4.70;;;;;;;6.93;100.00;98436.63;5281769;28;20048;-73
2023/03/10 05:10:42;;;;;;;17.10;4.50;;;;;;;6.91;100.00;98437.78;5282900;28;20024;-73
2023/03/10 05:13:13;;;;;;;16.08;4.25;;;;;;;6.96;100.00;98439.00;5281743;28;20028;-73
2023/03/10 05:15:45;;;;;;;24.40;4.88;;;;;;;6.89;100.00;98432.63;5284532;28;20436;-73
2023/03/10 05:18:16;;;;;;;19.65;5.60;;;;;;;6.89;100.00;98435.28;5283770;28;20036;-74
2023/03/10 05:20:52;;;;;;;21.20;4.80;;;;;;;6.86;100.00;98440.88;5279335;28;20028;-74
2023/03/10 05:23:24;;;;;;;16.42;4.25;;;;;;;6.98;100.00;98436.16;5284588;28;20032;-74
2023/03/10 05:25:55;;;;;;;19.15;4.80;;;;;;;7.02;100.00;98438.38;5285662;28;20040;-73
2023/03/10 05:28:26;;;;;;;18.92;4.43;;;;;;;6.99;100.00;98437.84;5279292;28;20114;-73
2023/03/10 05:30:58;;;;;;;20.25;5.07;;;;;;;7.05;100.00;98440.69;5283157;28;20024;-73
2023/03/10 05:33:29;;;;;;;24.42;5.15;;;;;;;6.95;100.00;98436.47;5283295;28;20029;-73
2023/03/10 05:36:06;;;;;;;16.77;5.03;;;;;;;6.95;100.00;98441.78;5283742;28;20036;-75
2023/03/10 05:38:40;;;;;;;18.27;4.25;;;;;;;6.96;100.00;98440.78;5283269;28;20020;-76
2023/03/10 05:41:12;;;;;;;26.35;5.22;;;;;;;6.93;100.00;98438.47;5281539;28;20051;-76
2023/03/10 05:43:43;;;;;;;23.88;5.05;;;;;;;7.01;100.00;98446.47;5278890;28;20036;-76
2023/03/10 05:46:15;;;;;;;17.63;4.95;;;;;;;6.98;100.00;98446.75;5281398;28;20058;-76
2023/03/10 05:48:46;;;;;;;19.95;5.43;;;;;;;6.97;100.00;98447.75;5285838;28;20452;-70
2023/03/10 05:51:17;;;;;;;20.90;5.22;;;;;;;7.06;100.00;98447.66;5279871;28;20020;-73
2023/03/10 05:53:48;;;;;;;16.75;5.30;;;;;;;7.09;100.00;98451.00;5280811;28;20040;-74
2023/03/10 05:56:21;;;;;;;19.20;5.50;;;;;;;7.17;100.00;98448.41;5285172;28;20031;-68
2023/03/10 05:58:52;;;;;;;29.88;6.53;;;;;;;7.02;100.00;98443.66;5290421;28;20607;-69
2023/03/10 06:01:23;;;;;;;14.70;5.20;;;;;;;7.15;100.00;98448.56;5282653;28;20290;-74
2023/03/10 06:03:55;;;;;;;27.35;5.93;;;;;;;7.09;100.00;98448.34;5284988;28;20032;-74
2023/03/10 06:06:26;;;;;;;23.10;5.15;;;;;;;7.15;100.00;98453.88;5283693;28;20043;-74
2023/03/10 06:08:58;;;;;;;245.10;28.30;;;;;;;7.09;100.00;98453.66;5286661;28;20032;-74
2023/03/10 06:11:29;;;;;;;24.25;6.63;;;;;;;7.07;100.00;98454.63;5286128;28;20062;-74
2023/03/10 06:14:00;;;;;;;22.00;6.03;;;;;;;7.22;100.00;98454.91;5286817;28;20129;-74
2023/03/10 06:16:32;;;;;;;22.27;6.75;;;;;;;7.10;100.00;98450.84;5288445;28;20056;-74
2023/03/10 06:19:03;;;;;;;36.25;7.15;;;;;;;7.12;100.00;98456.00;5281184;28;20033;-73
2023/03/10 06:21:35;;;;;;;32.55;6.72;;;;;;;7.10;100.00;98456.16;5284029;28;20037;-74
2023/03/10 06:24:06;;;;;;;34.47;7.38;;;;;;;7.11;100.00;98464.94;5287516;28;20517;-73
2023/03/10 06:26:38;;;;;;;18.83;5.88;;;;;;;7.18;100.00;98458.03;5282529;28;20070;-73
2023/03/10 06:29:10;;;;;;;24.45;5.82;;;;;;;7.18;100.00;98471.28;5291642;28;20033;-74
2023/03/10 06:31:41;;;;;;;31.67;7.07;;;;;;;7.12;100.00;98464.78;5283899;28;20036;-73
2023/03/10 06:34:12;;;;;;;29.63;6.95;;;;;;;7.12;100.00;98469.25;5294905;28;20024;-73
2023/03/10 06:36:43;;;;;;;26.23;7.25;;;;;;;7.18;100.00;98469.47;5283734;28;20099;-74
2023/03/10 06:39:15;;;;;;;25.67;7.20;;;;;;;7.13;100.00;98466.44;5286178;28;20036;-74
2023/03/10 06:41:46;;;;;;;28.67;6.93;;;;;;;7.20;100.00;98456.88;5288844;28;20363;-74
2023/03/10 06:44:18;;;;;;;15.77;5.70;;;;;;;7.32;100.00;98465.41;5290922;28;20393;-74
2023/03/10 06:46:49;;;;;;;27.02;6.90;;;;;;;7.17;100.00;98462.50;5280761;28;20079;-74
2023/03/10 06:49:21;;;;;;;30.63;6.78;;;;;;;7.34;100.00;98470.56;5275074;28;20036;-74
2023/03/10 06:51:52;;;;;;;21.38;6.72;;;;;;;7.25;100.00;98465.22;5281629;28;20644;-74
2023/03/10 06:54:23;;;;;;;25.75;6.53;;;;;;;7.25;100.00;98467.88;5293945;28;20035;-74
2023/03/10 06:56:55;;;;;;;14.35;5.60;;;;;;;7.24;100.00;98468.00;5287224;28;20032;-75
2023/03/10 06:59:26;;;;;;;19.10;5.88;;;;;;;7.26;100.00;98466.03;5290198;28;20065;-74
2023/03/10 07:01:57;;;;;;;20.85;6.35;;;;;;;7.28;100.00;98464.06;5271572;28;20432;-74
2023/03/10 07:04:28;;;;;;;22.38;6.25;;;;;;;7.30;100.00;98471.88;5273650;28;20025;-73
2023/03/10 07:07:00;;;;;;;23.92;7.57;;;;;;;7.35;100.00;98474.91;5282764;28;21430;-73
2023/03/10 07:09:31;;;;;;;16.80;6.88;;;;;;;7.43;100.00;98467.81;5283440;28;20051;-73
2023/03/10 07:12:02;;;;;;;24.77;7.30;;;;;;;7.44;100.00;98469.50;5288387;28;20088;-73
2023/03/10 07:14:34;;;;;;;20.00;7.30;;;;;;;7.46;100.00;98474.66;5283048;28;20111;-71
2023/03/10 07:17:05;;;;;;;22.20;7.82;;;;;;;7.65;100.00;98478.88;5288512;28;20072;-73
2023/03/10 07:19:36;;;;;;;28.13;7.18;;;;;;;7.57;100.00;98473.53;5286469;28;20028;-73
2023/03/10 07:22:08;;;;;;;31.25;7.25;;;;;;;7.56;100.00;98478.03;5288733;28;20028;-73
2023/03/10 07:24:39;;;;;;;21.45;6.63;;;;;;;7.82;100.00;98480.66;5285568;28;20028;-73
2023/03/10 07:27:10;;;;;;;29.55;6.72;;;;;;;7.63;100.00;98484.38;5287844;28;20166;-73
2023/03/10 07:29:41;;;;;;;32.83;7.35;;;;;;;7.68;100.00;98485.72;5285121;28;20035;-73
2023/03/10 07:32:14;;;;;;;27.27;5.53;;;;;;;7.74;100.00;98485.91;5283831;28;20166;-74
2023/03/10 07:34:46;;;;;;;22.92;5.75;;;;;;;7.91;100.00;98484.19;5278997;28;20028;-73
2023/03/10 07:37:17;;;;;;;28.17;5.65;;;;;;;7.90;100.00;98486.97;5279112;28;20028;-73
2023/03/10 07:39:48;;;;;;;24.00;5.20;;;;;;;7.99;100.00;98494.81;5288947;28;20058;-73
2023/03/10 07:42:20;;;;;;;27.17;6.20;;;;;;;8.16;100.00;98485.09;5289291;28;20028;-74
2023/03/10 07:44:51;;;;;;;23.33;5.68;;;;;;;8.20;100.00;98496.25;5285896;28;21062;-73
2023/03/10 07:47:23;;;;;;;29.00;6.45;;;;;;;8.21;100.00;98495.28;5283598;28;20032;-73
2023/03/10 07:49:54;;;;;;;23.70;5.32;;;;;;;8.27;100.00;98497.28;5295160;28;20019;-73
2023/03/10 07:52:27;;;;;;;19.65;4.68;;;;;;;8.34;100.00;98494.78;5287750;28;20036;-73
2023/03/10 07:54:58;;;;;;;24.35;4.75;;;;;;;8.38;100.00;98494.34;5285732;28;20032;-73
2023/03/10 07:57:29;;;;;;;21.30;4.30;;;;;;;8.48;100.00;98504.03;5287882;28;20024;-73
2023/03/10 08:00:02;;;;;;;21.73;4.68;;;;;;;8.39;100.00;98498.63;5285036;28;20109;-73
2023/03/10 08:02:33;;;;;;;20.77;4.40;;;;;;;8.39;100.00;98498.63;5293855;28;20032;-73
2023/03/10 08:05:05;;;;;;;17.60;3.97;;;;;;;8.41;100.00;98498.47;5292340;28;20036;-73
2023/03/10 08:07:36;;;;;;;16.75;3.80;;;;;;;8.44;100.00;98500.84;5291839;28;20038;-73
2023/03/10 08:10:08;;;;;;;19.30;3.58;;;;;;;8.40;100.00;98496.84;5296484;28;20043;-73
2023/03/10 08:12:40;;;;;;;20.48;3.70;;;;;;;8.51;100.00;98501.03;5293426;28;20032;-73
2023/03/10 08:15:12;;;;;;;19.10;3.72;;;;;;;8.49;100.00;98501.19;5295503;28;20076;-73
2023/03/10 08:17:43;;;;;;;15.10;3.80;;;;;;;8.59;100.00;98501.03;5291887;28;20115;-74
2023/03/10 08:20:15;;;;;;;17.42;4.00;;;;;;;8.61;100.00;98497.25;5291729;28;20039;-73
2023/03/10 08:22:46;;;;;;;18.10;4.50;;;;;;;8.72;100.00;98497.91;5292085;28;20036;-73
2023/03/10 08:25:17;;;;;;;20.17;4.85;;;;;;;8.74;100.00;98502.06;5292849;28;20853;-73
2023/03/10 08:27:49;;;;;;;19.15;3.92;;;;;;;8.80;100.00;98504.09;5291212;28;20039;-73
2023/03/10 08:30:20;;;;;;;16.67;3.63;;;;;;;8.83;100.00;98502.94;5294926;28;20023;-74
2023/03/10 08:32:56;;;;;;;19.75;4.13;;;;;;;8.77;100.00;98508.91;5294686;28;20051;-74
2023/03/10 08:35:27;;;;;;;18.65;3.20;;;;;;;8.69;100.00;98503.59;5288001;28;20036;-73
2023/03/10 08:37:58;;;;;;;19.17;3.60;;;;;;;8.68;100.00;98505.38;5287871;28;20435;-74
2023/03/10 08:40:30;;;;;;;13.48;3.60;;;;;;;8.70;100.00;98498.06;5293201;28;20028;-74
2023/03/10 08:43:02;;;;;;;17.27;3.58;;;;;;;8.70;100.00;98499.91;5295010;28;20032;-74
2023/03/10 08:45:33;;;;;;;20.20;3.90;;;;;;;8.75;100.00;98497.59;5289010;28;20054;-74
2023/03/10 08:48:04;;;;;;;20.23;4.45;;;;;;;8.80;100.00;98503.25;5295403;28;20040;-74
2023/03/10 08:50:36;;;;;;;16.73;3.83;;;;;;;8.89;100.00;98504.09;5291147;28;20050;-74
2023/03/10 08:53:07;;;;;;;19.70;4.47;;;;;;;9.00;100.00;98495.81;5289880;28;20031;-74
2023/03/10 08:55:38;;;;;;;17.90;3.92;;;;;;;9.05;100.00;98498.81;5288462;28;20117;-75
2023/03/10 08:58:10;;;;;;;15.38;3.75;;;;;;;9.09;100.00;98502.78;5288564;28;20024;-74
2023/03/10 09:00:41;;;;;;;14.95;3.22;;;;;;;9.09;100.00;98499.28;5295776;28;20377;-74
2023/03/10 09:03:13;;;;;;;18.83;4.25;;;;;;;9.11;100.00;98503.47;5290346;28;20052;-74
2023/03/10 09:05:45;;;;;;;20.77;4.22;;;;;;;9.07;100.00;98504.78;5294228;28;20028;-74
2023/03/10 09:08:17;;;;;;;16.60;3.97;;;;;;;9.18;100.00;98508.94;5292576;28;20059;-74
2023/03/10 09:10:48;;;;;;;18.83;3.83;;;;;;;9.16;100.00;98500.28;5295293;28;20112;-74
2023/03/10 09:13:20;;;;;;;17.40;3.70;;;;;;;9.17;100.00;98499.31;5289460;28;20029;-74
2023/03/10 09:15:51;;;;;;;15.75;3.65;;;;;;;9.18;100.00;98496.44;5284173;28;20023;-74
2023/03/10 09:18:23;;;;;;;15.20;3.92;;;;;;;9.18;100.00;98491.13;5286302;28;20027;-74
2023/03/10 09:20:54;;;;;;;22.17;3.72;;;;;;;9.15;100.00;98496.81;5292436;28;20035;-74
2023/03/10 09:23:26;;;;;;;16.70;3.72;;;;;;;9.23;100.00;98486.16;5288568;28;20477;-74
2023/03/10 09:25:57;;;;;;;15.88;3.33;;;;;;;9.17;100.00;98494.81;5287000;28;20475;-74
2023/03/10 09:28:29;;;;;;;14.13;3.75;;;;;;;9.17;100.00;98488.66;5291257;28;20028;-74
2023/03/10 09:31:00;;;;;;;13.10;3.20;;;;;;;9.07;100.00;98498.63;5298214;28;20073;-74
2023/03/10 09:33:32;;;;;;;14.80;3.40;;;;;;;9.02;100.00;98491.16;5291164;28;20106;-74
2023/03/10 09:36:03;;;;;;;13.57;2.70;;;;;;;8.94;100.00;98496.47;5294986;28;20038;-74
2023/03/10 09:38:35;;;;;;;16.13;3.00;;;;;;;8.91;100.00;98488.81;5290983;28;20301;-74
2023/03/10 09:41:23;;;;;;;17.63;3.28;;;;;;;8.91;100.00;98496.78;5293258;28;20044;-74
2023/03/10 09:44:06;;;;;;;8.50;2.35;;;;;;;8.87;100.00;98506.91;5292071;28;20640;-74
2023/03/10 09:46:49;;;;;;;7.78;2.40;;;;;;;8.90;100.00;98503.94;5294548;28;20047;-74
2023/03/10 09:49:34;;;;;;;9.13;2.00;;;;;;;8.91;100.00;98507.44;5282507;28;20043;-74
2023/03/10 09:52:22;;;;;;;11.35;2.10;;;;;;;9.00;100.00;98514.41;5289110;28;20371;-74
2023/03/10 09:54:57;;;;;;;13.05;2.03;;;;;;;8.92;100.00;98504.59;5290339;28;20094;-73
2023/03/10 09:57:30;;;;;;;15.95;3.25;;;;;;;8.97;100.00;98507.59;5293546;28;20569;-74
2023/03/10 10:00:07;;;;;;;12.52;2.67;;;;;;;9.00;100.00;98515.25;5289634;28;20066;-73
2023/03/10 10:02:44;;;;;;;13.27;3.10;;;;;;;9.04;100.00;98518.41;5293376;28;20023;-74
2023/03/10 10:05:24;;;;;;;13.10;3.40;;;;;;;9.01;100.00;98518.72;5287173;28;20052;-74
2023/03/10 10:07:58;;;;;;;14.30;3.67;;;;;;;8.99;100.00;98518.06;5289939;28;20047;-75
2023/03/10 10:10:35;;;;;;;13.95;3.63;;;;;;;9.09;100.00;98524.06;5293346;28;20606;-74
2023/03/10 10:13:15;;;;;;;14.13;3.38;;;;;;;9.00;100.00;98525.88;5296802;28;20038;-74
2023/03/10 10:15:56;;;;;;;11.32;3.22;;;;;;;9.10;100.00;98538.19;5292875;28;20024;-75
2023/03/10 10:18:50;;;;;;;11.63;3.42;;;;;;;9.02;100.00;98526.53;5289848;28;20032;-74
2023/03/10 10:21:29;;;;;;;11.43;3.10;;;;;;;8.99;100.00;98526.91;5292217;28;20028;-74
2023/03/10 10:24:00;;;;;;;16.50;3.72;;;;;;;8.94;100.00;98534.53;5291925;28;20032;-73
2023/03/10 10:26:31;;;;;;;13.85;3.55;;;;;;;8.85;100.00;98535.50;5292129;28;20120;-73
2023/03/10 10:29:21;;;;;;;13.88;3.17;;;;;;;8.85;100.00;98540.00;5290318;28;20036;-73
2023/03/10 10:32:14;;;;;;;17.30;3.67;;;;;;;8.84;100.00;98536.50;5291932;28;20185;-72
2023/03/10 10:34:46;;;;;;;17.80;3.63;;;;;;;8.78;100.00;98535.34;5291191;28;20036;-73
2023/03/10 10:37:20;;;;;;;14.60;3.42;;;;;;;8.87;100.00;98524.72;5284448;28;20506;-73
2023/03/10 10:39:53;;;;;;;17.35;4.00;;;;;;;8.94;100.00;98520.41;5292796;28;20089;-74
2023/03/10 10:42:33;;;;;;;16.85;4.10;;;;;;;9.07;100.00;98517.25;5292648;28;20031;-73
2023/03/10 10:45:23;;;;;;;18.98;4.65;;;;;;;9.04;100.00;98515.75;5291548;28;20024;-74
2023/03/10 10:47:55;;;;;;;20.27;4.53;;;;;;;9.06;100.00;98512.94;5288654;28;20035;-74
2023/03/10 10:50:29;;;;;;;18.35;4.97;;;;;;;9.07;100.00;98514.56;5292003;28;20020;-73
2023/03/10 10:53:20;;;;;;;23.15;5.68;;;;;;;9.04;100.00;98510.44;5289427;28;20112;-73
2023/03/10 10:56:04;;;;;;;23.63;5.93;;;;;;;9.05;100.00;98503.28;5291336;28;20382;-73
2023/03/10 10:58:39;;;;;;;22.63;5.93;;;;;;;9.12;100.00;98501.63;5291363;28;20112;-74
2023/03/10 11:01:15;;;;;;;20.23;5.60;;;;;;;9.06;100.00;98503.13;5286984;28;20043;-73
2023/03/10 11:03:47;;;;;;;19.35;5.10;;;;;;;9.08;100.00;98490.47;5302328;27;20036;-74
2023/03/10 11:06:28;;;;;;;19.65;5.03;;;;;;;8.98;100.00;98492.47;5288813;28;20036;-74
2023/03/10 11:09:21;;;;;;;13.52;4.95;;;;;;;9.02;100.00;98501.78;5284685;28;20024;-73
2023/03/10 11:12:04;;;;;;;13.85;3.78;;;;;;;8.97;100.00;98501.44;5293692;28;20036;-73
2023/03/10 11:15:00;;;;;;;17.77;4.53;;;;;;;9.00;100.00;98495.81;5289138;28;20034;-74
2023/03/10 11:17:41;;;;;;;26.15;5.40;;;;;;;8.99;100.00;98494.13;5289823;28;20374;-74
2023/03/10 11:20:28;;;;;;;14.32;4.00;;;;;;;8.96;100.00;98497.97;5289759;28;20478;-74
2023/03/10 11:23:11;;;;;;;15.10;3.88;;;;;;;9.01;100.00;98495.66;5286902;28;20070;-74
2023/03/10 11:26:13;;;;;;;13.95;4.30;;;;;;;9.00;100.00;98488.66;5292455;28;20056;-75
2023/03/10 11:28:53;;;;;;;11.15;4.75;;;;;;;8.96;100.00;98489.97;5290094;28;20397;-69
2023/03/10 11:31:38;;;;;;;12.55;3.67;;;;;;;9.02;100.00;98485.81;5291971;28;20382;-69
2023/03/10 11:34:18;;;;;;;11.15;3.75;;;;;;;9.01;100.00;98469.03;5284890;28;20028;-69
2023/03/10 11:37:01;;;;;;;12.27;4.18;;;;;;;9.00;100.00;98478.00;5293079;28;20027;-69
2023/03/10 11:40:06;;;;;;;10.77;4.63;;;;;;;9.01;100.00;98478.81;5284919;28;20144;-69
2023/03/10 11:42:52;;;;;;;9.55;4.07;;;;;;;9.00;100.00;98478.00;5289988;28;20437;-69
2023/03/10 11:45:41;;;;;;;13.15;5.25;;;;;;;8.95;100.00;98474.19;5279463;28;20035;-69
2023/03/10 11:48:24;;;;;;;7.85;4.55;;;;;;;8.94;100.00;98473.34;5287200;28;20043;-69
2023/03/10 11:50:58;;;;;;;10.02;5.38;;;;;;;9.02;100.00;98476.00;5285971;28;20440;-69
2023/03/10 11:53:48;;;;;;;9.82;5.70;;;;;;;8.96;100.00;98465.22;5287516;28;20070;-69